sensor_id;sensor_type;location;lat;lon;timestamp;temperature;humidity
53204;DHT22;39086;54.424;18.456;2023-07-20T00:00:17;12.10;99.90
53204;DHT22;39086;54.424;18.456;2023-07-20T00:01:21;12.10;99.90
53204;DHT22;39086;54.424;18.456;2023-07-20T00:02:23;12.10;99.90
53204;DHT22;39086;54.424;18.456;2023-07-20T00:03:26;12.10;99.90
53204;DHT22;39086;54.424;18.456;2023-07-20T00:04:28;12.00;99.90
53204;DHT22;39086;54.424;18.456;2023-07-20T00:05:31;12.10;99.90
53204;DHT22;39086;54.424;18.456;2023-07-20T00:06:33;12.10;99.90
53204;DHT22;39086;54.424;18.456;2023-07-20T00:07:36;12.10;99.90
53204;DHT22;39086;54.424;18.456;2023-07-20T00:08:38;12.10;99.90
53204;DHT22;39086;54.424;18.456;2023-07-20T00:09:41;12.00;99.90
53204;DHT22;39086;54.424;18.456;2023-07-20T00:10:45;12.10;99.90
53204;DHT22;39086;54.424;18.456;2023-07-20T00:11:49;12.10;99.90
53204;DHT22;39086;54.424;18.456;2023-07-20T00:12:51;12.10;99.90
53204;DHT22;39086;54.424;18.456;2023-07-20T03:32:27;11.70;99.90
53204;DHT22;39086;54.424;18.456;2023-07-20T03:33:31;11.70;99.90
53204;DHT22;39086;54.424;18.456;2023-07-20T03:34:33;11.80;99.90
53204;DHT22;39086;54.424;18.456;2023-07-20T03:35:36;11.70;99.90
53204;DHT22;39086;54.424;18.456;2023-07-20T03:36:38;11.70;99.90
53204;DHT22;39086;54.424;18.456;2023-07-20T03:37:43;11.70;99.90
53204;DHT22;39086;54.424;18.456;2023-07-20T03:38:45;11.70;99.90
53204;DHT22;39086;54.424;18.456;2023-07-20T03:39:48;11.70;99.90
53204;DHT22;39086;54.424;18.456;2023-07-20T03:40:50;11.70;99.90
53204;DHT22;39086;54.424;18.456;2023-07-20T03:41:53;11.80;99.90
53204;DHT22;39086;54.424;18.456;2023-07-20T03:42:55;11.70;99.90
53204;DHT22;39086;54.424;18.456;2023-07-20T03:43:58;11.80;99.90
53204;DHT22;39086;54.424;18.456;2023-07-20T03:45:01;11.80;99.90
53204;DHT22;39086;54.424;18.456;2023-07-20T03:46:06;11.90;99.90
53204;DHT22;39086;54.424;18.456;2023-07-20T03:47:09;11.90;99.90
53204;DHT22;39086;54.424;18.456;2023-07-20T03:48:12;11.90;99.90
53204;DHT22;39086;54.424;18.456;2023-07-20T03:49:14;11.90;99.90
53204;DHT22;39086;54.424;18.456;2023-07-20T03:50:17;11.90;99.90
53204;DHT22;39086;54.424;18.456;2023-07-20T03:51:19;12.00;99.90
53204;DHT22;39086;54.424;18.456;2023-07-20T03:52:22;12.00;99.90
53204;DHT22;39086;54.424;18.456;2023-07-20T03:53:26;12.10;99.90
53204;DHT22;39086;54.424;18.456;2023-07-20T03:54:29;12.10;99.90
53204;DHT22;39086;54.424;18.456;2023-07-20T03:55:32;12.10;99.90
53204;DHT22;39086;54.424;18.456;2023-07-20T03:56:35;12.20;99.90
53204;DHT22;39086;54.424;18.456;2023-07-20T03:57:37;12.20;99.90
53204;DHT22;39086;54.424;18.456;2023-07-20T03:58:40;12.30;99.90
53204;DHT22;39086;54.424;18.456;2023-07-20T03:59:45;12.30;99.90
53204;DHT22;39086;54.424;18.456;2023-07-20T04:00:49;12.30;99.90
53204;DHT22;39086;54.424;18.456;2023-07-20T04:01:52;12.40;99.90
53204;DHT22;39086;54.424;18.456;2023-07-20T04:02:55;12.40;99.90
53204;DHT22;39086;54.424;18.456;2023-07-20T04:03:57;12.50;99.90
53204;DHT22;39086;54.424;18.456;2023-07-20T04:05:00;12.50;99.90
53204;DHT22;39086;54.424;18.456;2023-07-20T04:06:02;12.60;99.90
53204;DHT22;39086;54.424;18.456;2023-07-20T04:07:04;12.60;99.90
53204;DHT22;39086;54.424;18.456;2023-07-20T04:08:09;12.60;99.90
53204;DHT22;39086;54.424;18.456;2023-07-20T04:09:14;12.70;99.90
53204;DHT22;39086;54.424;18.456;2023-07-20T04:10:17;12.80;99.90
53204;DHT22;39086;54.424;18.456;2023-07-20T04:11:19;12.80;99.90
53204;DHT22;39086;54.424;18.456;2023-07-20T04:12:22;12.80;99.90
53204;DHT22;39086;54.424;18.456;2023-07-20T04:13:24;12.90;99.90
53204;DHT22;39086;54.424;18.456;2023-07-20T04:14:27;13.00;99.90
53204;DHT22;39086;54.424;18.456;2023-07-20T04:15:29;13.00;99.90
53204;DHT22;39086;54.424;18.456;2023-07-20T04:16:33;13.10;99.90
53204;DHT22;39086;54.424;18.456;2023-07-20T04:17:35;13.10;99.90
53204;DHT22;39086;54.424;18.456;2023-07-20T04:18:38;13.10;99.90
53204;DHT22;39086;54.424;18.456;2023-07-20T04:19:40;13.20;99.90
53204;DHT22;39086;54.424;18.456;2023-07-20T04:20:43;13.20;99.90
53204;DHT22;39086;54.424;18.456;2023-07-20T04:21:45;13.30;99.90
53204;DHT22;39086;54.424;18.456;2023-07-20T04:22:48;13.30;99.90
53204;DHT22;39086;54.424;18.456;2023-07-20T04:23:51;13.40;99.90
53204;DHT22;39086;54.424;18.456;2023-07-20T04:24:55;13.40;99.90
53204;DHT22;39086;54.424;18.456;2023-07-20T04:25:57;13.50;99.90
53204;DHT22;39086;54.424;18.456;2023-07-20T04:27:00;13.50;99.90
53204;DHT22;39086;54.424;18.456;2023-07-20T04:28:03;13.50;99.90
53204;DHT22;39086;54.424;18.456;2023-07-20T04:29:06;13.50;99.90
53204;DHT22;39086;54.424;18.456;2023-07-20T04:30:08;13.50;99.90
53204;DHT22;39086;54.424;18.456;2023-07-20T04:31:12;13.60;99.90
53204;DHT22;39086;54.424;18.456;2023-07-20T04:32:15;13.60;99.90
53204;DHT22;39086;54.424;18.456;2023-07-20T04:33:18;13.70;99.90
53204;DHT22;39086;54.424;18.456;2023-07-20T04:34:20;13.80;99.90
53204;DHT22;39086;54.424;18.456;2023-07-20T04:35:44;13.80;99.90
53204;DHT22;39086;54.424;18.456;2023-07-20T04:36:47;13.80;99.90
53204;DHT22;39086;54.424;18.456;2023-07-20T04:37:50;13.90;99.90
53204;DHT22;39086;54.424;18.456;2023-07-20T04:38:52;13.90;99.90
53204;DHT22;39086;54.424;18.456;2023-07-20T04:39:57;14.00;99.90
53204;DHT22;39086;54.424;18.456;2023-07-20T04:40:59;14.00;99.90
53204;DHT22;39086;54.424;18.456;2023-07-20T04:42:03;14.00;99.90
53204;DHT22;39086;54.424;18.456;2023-07-20T04:43:06;14.10;99.90
53204;DHT22;39086;54.424;18.456;2023-07-20T04:44:09;14.20;99.90
53204;DHT22;39086;54.424;18.456;2023-07-20T04:45:11;14.20;99.90
53204;DHT22;39086;54.424;18.456;2023-07-20T04:46:14;14.20;99.90
53204;DHT22;39086;54.424;18.456;2023-07-20T04:47:19;14.20;99.90
53204;DHT22;39086;54.424;18.456;2023-07-20T04:48:22;14.20;99.90
53204;DHT22;39086;54.424;18.456;2023-07-20T04:49:24;14.20;99.90
53204;DHT22;39086;54.424;18.456;2023-07-20T04:50:27;14.20;99.90
53204;DHT22;39086;54.424;18.456;2023-07-20T04:51:29;14.20;99.90
53204;DHT22;39086;54.424;18.456;2023-07-20T04:52:33;14.20;99.90
53204;DHT22;39086;54.424;18.456;2023-07-20T04:53:44;14.20;99.90
53204;DHT22;39086;54.424;18.456;2023-07-20T04:54:47;14.20;99.90
53204;DHT22;39086;54.424;18.456;2023-07-20T04:55:50;14.20;99.90
53204;DHT22;39086;54.424;18.456;2023-07-20T04:56:54;14.20;99.90
53204;DHT22;39086;54.424;18.456;2023-07-20T04:57:57;14.20;99.90
53204;DHT22;39086;54.424;18.456;2023-07-20T04:58:59;14.30;99.90
53204;DHT22;39086;54.424;18.456;2023-07-20T05:00:02;14.30;99.90
53204;DHT22;39086;54.424;18.456;2023-07-20T05:01:05;14.30;99.90
53204;DHT22;39086;54.424;18.456;2023-07-20T05:02:08;14.30;99.90
53204;DHT22;39086;54.424;18.456;2023-07-20T05:03:10;14.30;99.90
53204;DHT22;39086;54.424;18.456;2023-07-20T05:04:13;14.30;99.90
53204;DHT22;39086;54.424;18.456;2023-07-20T05:05:19;14.30;99.90
53204;DHT22;39086;54.424;18.456;2023-07-20T05:06:22;14.30;99.90
53204;DHT22;39086;54.424;18.456;2023-07-20T05:07:25;14.30;99.90
53204;DHT22;39086;54.424;18.456;2023-07-20T05:08:28;14.40;99.90
53204;DHT22;39086;54.424;18.456;2023-07-20T05:09:30;14.40;99.90
53204;DHT22;39086;54.424;18.456;2023-07-20T05:10:33;14.40;99.90
53204;DHT22;39086;54.424;18.456;2023-07-20T05:11:36;14.40;99.90
53204;DHT22;39086;54.424;18.456;2023-07-20T05:12:39;14.50;99.90
53204;DHT22;39086;54.424;18.456;2023-07-20T05:13:41;14.50;99.90
53204;DHT22;39086;54.424;18.456;2023-07-20T05:14:45;14.50;99.90
53204;DHT22;39086;54.424;18.456;2023-07-20T05:15:47;14.50;99.90
53204;DHT22;39086;54.424;18.456;2023-07-20T05:16:53;14.60;99.90
53204;DHT22;39086;54.424;18.456;2023-07-20T05:17:55;14.70;99.90
53204;DHT22;39086;54.424;18.456;2023-07-20T05:18:59;14.70;99.90
53204;DHT22;39086;54.424;18.456;2023-07-20T05:20:01;14.70;99.90
53204;DHT22;39086;54.424;18.456;2023-07-20T05:21:06;14.80;99.90
53204;DHT22;39086;54.424;18.456;2023-07-20T05:22:08;14.80;99.90
53204;DHT22;39086;54.424;18.456;2023-07-20T05:23:11;14.80;99.90
53204;DHT22;39086;54.424;18.456;2023-07-20T05:24:13;14.80;99.90
53204;DHT22;39086;54.424;18.456;2023-07-20T05:25:16;14.90;99.90
53204;DHT22;39086;54.424;18.456;2023-07-20T05:26:20;15.00;99.90
53204;DHT22;39086;54.424;18.456;2023-07-20T05:27:24;15.00;99.90
53204;DHT22;39086;54.424;18.456;2023-07-20T05:28:27;15.00;99.90
53204;DHT22;39086;54.424;18.456;2023-07-20T05:29:30;15.00;99.90
53204;DHT22;39086;54.424;18.456;2023-07-20T05:30:32;15.00;99.90
53204;DHT22;39086;54.424;18.456;2023-07-20T05:31:35;15.00;99.90
53204;DHT22;39086;54.424;18.456;2023-07-20T05:32:37;15.00;99.90
53204;DHT22;39086;54.424;18.456;2023-07-20T05:33:40;15.00;99.90
53204;DHT22;39086;54.424;18.456;2023-07-20T05:34:42;15.00;99.90
53204;DHT22;39086;54.424;18.456;2023-07-20T05:35:45;15.00;99.90
53204;DHT22;39086;54.424;18.456;2023-07-20T05:36:47;15.00;99.90
53204;DHT22;39086;54.424;18.456;2023-07-20T05:37:50;15.10;99.90
53204;DHT22;39086;54.424;18.456;2023-07-20T05:38:52;15.20;99.90
53204;DHT22;39086;54.424;18.456;2023-07-20T05:39:55;15.20;99.90
53204;DHT22;39086;54.424;18.456;2023-07-20T05:40:59;15.20;99.90
53204;DHT22;39086;54.424;18.456;2023-07-20T05:42:04;15.30;99.90
53204;DHT22;39086;54.424;18.456;2023-07-20T05:43:08;15.30;99.90
53204;DHT22;39086;54.424;18.456;2023-07-20T05:44:11;15.30;99.90
53204;DHT22;39086;54.424;18.456;2023-07-20T05:45:13;15.30;99.90
53204;DHT22;39086;54.424;18.456;2023-07-20T05:46:15;15.30;99.90
53204;DHT22;39086;54.424;18.456;2023-07-20T05:47:19;15.40;99.90
53204;DHT22;39086;54.424;18.456;2023-07-20T05:48:21;15.30;99.90
53204;DHT22;39086;54.424;18.456;2023-07-20T05:49:24;15.40;99.90
53204;DHT22;39086;54.424;18.456;2023-07-20T05:50:26;15.40;99.90
53204;DHT22;39086;54.424;18.456;2023-07-20T05:51:29;15.40;99.90
53204;DHT22;39086;54.424;18.456;2023-07-20T05:52:32;15.40;99.90
53204;DHT22;39086;54.424;18.456;2023-07-20T05:53:35;15.40;99.90
53204;DHT22;39086;54.424;18.456;2023-07-20T05:54:37;15.40;99.90
53204;DHT22;39086;54.424;18.456;2023-07-20T05:55:40;15.50;99.90
53204;DHT22;39086;54.424;18.456;2023-07-20T05:56:42;15.50;99.90
53204;DHT22;39086;54.424;18.456;2023-07-20T05:57:45;15.40;99.90
53204;DHT22;39086;54.424;18.456;2023-07-20T05:58:49;15.50;99.90
53204;DHT22;39086;54.424;18.456;2023-07-20T05:59:52;15.50;99.90
53204;DHT22;39086;54.424;18.456;2023-07-20T06:00:54;15.40;99.90
53204;DHT22;39086;54.424;18.456;2023-07-20T06:01:57;15.50;99.90
53204;DHT22;39086;54.424;18.456;2023-07-20T06:03:00;15.40;99.90
53204;DHT22;39086;54.424;18.456;2023-07-20T06:04:03;15.50;99.90
53204;DHT22;39086;54.424;18.456;2023-07-20T06:05:07;15.50;99.90
53204;DHT22;39086;54.424;18.456;2023-07-20T06:06:11;15.50;99.90
53204;DHT22;39086;54.424;18.456;2023-07-20T06:07:13;15.50;99.90
53204;DHT22;39086;54.424;18.456;2023-07-20T06:08:16;15.50;99.90
53204;DHT22;39086;54.424;18.456;2023-07-20T06:09:19;15.50;99.90
53204;DHT22;39086;54.424;18.456;2023-07-20T06:10:21;15.50;99.90
53204;DHT22;39086;54.424;18.456;2023-07-20T06:11:24;15.50;99.90
53204;DHT22;39086;54.424;18.456;2023-07-20T06:12:27;15.50;99.90
53204;DHT22;39086;54.424;18.456;2023-07-20T06:13:29;15.50;99.90
53204;DHT22;39086;54.424;18.456;2023-07-20T06:14:34;15.60;99.90
53204;DHT22;39086;54.424;18.456;2023-07-20T06:15:36;15.50;99.90
53204;DHT22;39086;54.424;18.456;2023-07-20T06:16:40;15.50;99.90
53204;DHT22;39086;54.424;18.456;2023-07-20T06:17:43;15.60;99.90
53204;DHT22;39086;54.424;18.456;2023-07-20T06:18:46;15.60;99.90
53204;DHT22;39086;54.424;18.456;2023-07-20T06:19:48;15.50;99.90
53204;DHT22;39086;54.424;18.456;2023-07-20T06:20:51;15.50;99.90
53204;DHT22;39086;54.424;18.456;2023-07-20T06:21:54;15.50;99.90
53204;DHT22;39086;54.424;18.456;2023-07-20T06:22:57;15.50;99.90
53204;DHT22;39086;54.424;18.456;2023-07-20T06:23:59;15.40;99.90
53204;DHT22;39086;54.424;18.456;2023-07-20T06:25:02;15.50;99.90
53204;DHT22;39086;54.424;18.456;2023-07-20T06:26:06;15.50;99.90
53204;DHT22;39086;54.424;18.456;2023-07-20T06:27:09;15.40;99.90
53204;DHT22;39086;54.424;18.456;2023-07-20T06:28:11;15.50;99.90
53204;DHT22;39086;54.424;18.456;2023-07-20T06:29:14;15.40;99.90
53204;DHT22;39086;54.424;18.456;2023-07-20T06:30:18;15.30;99.90
53204;DHT22;39086;54.424;18.456;2023-07-20T06:31:21;15.30;99.90
53204;DHT22;39086;54.424;18.456;2023-07-20T06:32:23;15.30;99.90
53204;DHT22;39086;54.424;18.456;2023-07-20T06:33:26;15.20;99.90
53204;DHT22;39086;54.424;18.456;2023-07-20T06:34:28;15.20;99.90
53204;DHT22;39086;54.424;18.456;2023-07-20T06:35:31;15.20;99.90
53204;DHT22;39086;54.424;18.456;2023-07-20T06:36:33;15.20;99.90
53204;DHT22;39086;54.424;18.456;2023-07-20T06:37:36;15.20;99.90
53204;DHT22;39086;54.424;18.456;2023-07-20T06:38:38;15.20;99.90
53204;DHT22;39086;54.424;18.456;2023-07-20T06:39:42;15.20;99.90
53204;DHT22;39086;54.424;18.456;2023-07-20T06:40:47;15.20;99.90
53204;DHT22;39086;54.424;18.456;2023-07-20T06:41:49;15.20;99.90
53204;DHT22;39086;54.424;18.456;2023-07-20T06:42:56;15.20;99.90
53204;DHT22;39086;54.424;18.456;2023-07-20T06:44:01;15.10;99.90
53204;DHT22;39086;54.424;18.456;2023-07-20T06:45:05;15.10;99.90
53204;DHT22;39086;54.424;18.456;2023-07-20T06:46:08;15.10;99.90
53204;DHT22;39086;54.424;18.456;2023-07-20T06:47:11;15.10;99.90
53204;DHT22;39086;54.424;18.456;2023-07-20T06:48:14;15.10;99.90
53204;DHT22;39086;54.424;18.456;2023-07-20T06:49:24;15.10;99.90
53204;DHT22;39086;54.424;18.456;2023-07-20T06:50:26;15.00;99.90
53204;DHT22;39086;54.424;18.456;2023-07-20T06:51:29;15.00;99.90
53204;DHT22;39086;54.424;18.456;2023-07-20T06:52:31;14.90;99.90
53204;DHT22;39086;54.424;18.456;2023-07-20T06:53:34;14.90;99.90
53204;DHT22;39086;54.424;18.456;2023-07-20T06:54:37;14.90;99.90
53204;DHT22;39086;54.424;18.456;2023-07-20T06:55:45;14.90;99.90
53204;DHT22;39086;54.424;18.456;2023-07-20T06:56:48;14.80;99.90
53204;DHT22;39086;54.424;18.456;2023-07-20T06:58:11;14.80;99.90
53204;DHT22;39086;54.424;18.456;2023-07-20T06:59:13;14.70;99.90
53204;DHT22;39086;54.424;18.456;2023-07-20T07:00:17;14.60;99.90
53204;DHT22;39086;54.424;18.456;2023-07-20T07:01:20;14.60;99.90
53204;DHT22;39086;54.424;18.456;2023-07-20T07:02:24;14.50;99.90
53204;DHT22;39086;54.424;18.456;2023-07-20T07:03:26;14.60;99.90
53204;DHT22;39086;54.424;18.456;2023-07-20T07:04:29;14.60;99.90
53204;DHT22;39086;54.424;18.456;2023-07-20T07:05:32;14.50;99.90
53204;DHT22;39086;54.424;18.456;2023-07-20T07:06:38;14.60;99.90
53204;DHT22;39086;54.424;18.456;2023-07-20T07:07:40;14.50;99.90
53204;DHT22;39086;54.424;18.456;2023-07-20T07:08:43;14.50;99.90
53204;DHT22;39086;54.424;18.456;2023-07-20T07:09:46;14.50;99.90
53204;DHT22;39086;54.424;18.456;2023-07-20T07:10:50;14.60;99.90
53204;DHT22;39086;54.424;18.456;2023-07-20T07:11:52;14.60;99.90
53204;DHT22;39086;54.424;18.456;2023-07-20T07:12:55;14.60;99.90
53204;DHT22;39086;54.424;18.456;2023-07-20T07:13:57;14.70;99.90
53204;DHT22;39086;54.424;18.456;2023-07-20T07:15:00;14.80;99.90
53204;DHT22;39086;54.424;18.456;2023-07-20T07:16:02;14.70;99.90
53204;DHT22;39086;54.424;18.456;2023-07-20T07:17:12;14.70;99.90
53204;DHT22;39086;54.424;18.456;2023-07-20T07:18:14;14.80;99.90
53204;DHT22;39086;54.424;18.456;2023-07-20T07:19:17;14.80;99.90
53204;DHT22;39086;54.424;18.456;2023-07-20T07:20:19;14.80;99.90
53204;DHT22;39086;54.424;18.456;2023-07-20T07:21:22;14.80;99.90
53204;DHT22;39086;54.424;18.456;2023-07-20T07:22:24;14.90;99.90
53204;DHT22;39086;54.424;18.456;2023-07-20T07:23:28;14.90;99.90
53204;DHT22;39086;54.424;18.456;2023-07-20T07:24:30;14.90;99.90
53204;DHT22;39086;54.424;18.456;2023-07-20T07:25:35;14.90;99.90
53204;DHT22;39086;54.424;18.456;2023-07-20T07:26:37;14.90;99.90
53204;DHT22;39086;54.424;18.456;2023-07-20T07:27:40;14.90;99.90
53204;DHT22;39086;54.424;18.456;2023-07-20T07:28:42;14.80;99.90
53204;DHT22;39086;54.424;18.456;2023-07-20T07:29:46;14.80;99.90
53204;DHT22;39086;54.424;18.456;2023-07-20T07:30:48;14.90;99.90
53204;DHT22;39086;54.424;18.456;2023-07-20T07:31:51;14.90;99.90
53204;DHT22;39086;54.424;18.456;2023-07-20T07:32:55;15.00;99.90
53204;DHT22;39086;54.424;18.456;2023-07-20T07:33:58;15.00;99.90
53204;DHT22;39086;54.424;18.456;2023-07-20T07:35:00;15.00;99.90
53204;DHT22;39086;54.424;18.456;2023-07-20T07:36:04;15.00;99.90
53204;DHT22;39086;54.424;18.456;2023-07-20T07:37:06;15.00;99.90
53204;DHT22;39086;54.424;18.456;2023-07-20T07:38:09;15.00;99.90
53204;DHT22;39086;54.424;18.456;2023-07-20T07:39:31;15.00;99.90
53204;DHT22;39086;54.424;18.456;2023-07-20T07:40:36;15.00;99.90
53204;DHT22;39086;54.424;18.456;2023-07-20T07:41:38;15.00;99.90
53204;DHT22;39086;54.424;18.456;2023-07-20T07:42:41;15.00;99.90
53204;DHT22;39086;54.424;18.456;2023-07-20T07:43:43;15.00;99.90
53204;DHT22;39086;54.424;18.456;2023-07-20T07:44:46;15.00;99.90
53204;DHT22;39086;54.424;18.456;2023-07-20T07:45:49;15.00;99.90
53204;DHT22;39086;54.424;18.456;2023-07-20T07:46:52;15.00;99.90
53204;DHT22;39086;54.424;18.456;2023-07-20T07:47:56;15.00;99.90
53204;DHT22;39086;54.424;18.456;2023-07-20T07:48:59;15.00;99.90
53204;DHT22;39086;54.424;18.456;2023-07-20T07:50:02;15.10;99.90
53204;DHT22;39086;54.424;18.456;2023-07-20T07:51:05;15.10;99.90
53204;DHT22;39086;54.424;18.456;2023-07-20T07:52:07;15.10;99.90
53204;DHT22;39086;54.424;18.456;2023-07-20T07:53:11;15.20;99.90
53204;DHT22;39086;54.424;18.456;2023-07-20T07:54:13;15.30;99.90
53204;DHT22;39086;54.424;18.456;2023-07-20T07:55:16;15.30;99.90
53204;DHT22;39086;54.424;18.456;2023-07-20T07:56:19;15.40;99.90
53204;DHT22;39086;54.424;18.456;2023-07-20T07:57:25;15.50;99.90
53204;DHT22;39086;54.424;18.456;2023-07-20T07:58:28;15.60;99.90
53204;DHT22;39086;54.424;18.456;2023-07-20T07:59:31;15.80;99.90
53204;DHT22;39086;54.424;18.456;2023-07-20T08:00:38;15.80;99.90
53204;DHT22;39086;54.424;18.456;2023-07-20T08:01:41;15.80;99.90
53204;DHT22;39086;54.424;18.456;2023-07-20T08:02:43;15.90;99.90
53204;DHT22;39086;54.424;18.456;2023-07-20T08:03:46;15.90;99.90
53204;DHT22;39086;54.424;18.456;2023-07-20T08:04:50;15.90;99.90
53204;DHT22;39086;54.424;18.456;2023-07-20T08:05:54;16.00;99.90
53204;DHT22;39086;54.424;18.456;2023-07-20T08:06:59;16.00;99.90
53204;DHT22;39086;54.424;18.456;2023-07-20T08:08:02;16.00;99.90
53204;DHT22;39086;54.424;18.456;2023-07-20T08:09:06;16.10;99.90
53204;DHT22;39086;54.424;18.456;2023-07-20T08:10:09;16.20;99.90
53204;DHT22;39086;54.424;18.456;2023-07-20T08:11:12;16.30;99.90
53204;DHT22;39086;54.424;18.456;2023-07-20T08:12:16;16.30;99.90
53204;DHT22;39086;54.424;18.456;2023-07-20T08:13:21;16.40;99.90
53204;DHT22;39086;54.424;18.456;2023-07-20T08:14:23;16.40;99.90
53204;DHT22;39086;54.424;18.456;2023-07-20T08:15:26;16.50;99.90
53204;DHT22;39086;54.424;18.456;2023-07-20T08:16:28;16.60;99.90
53204;DHT22;39086;54.424;18.456;2023-07-20T08:17:31;16.70;99.90
53204;DHT22;39086;54.424;18.456;2023-07-20T08:18:34;16.70;99.90
53204;DHT22;39086;54.424;18.456;2023-07-20T08:19:38;16.80;99.90
53204;DHT22;39086;54.424;18.456;2023-07-20T08:20:44;16.80;99.90
53204;DHT22;39086;54.424;18.456;2023-07-20T08:21:48;16.80;99.90
53204;DHT22;39086;54.424;18.456;2023-07-20T08:22:50;16.90;99.90
53204;DHT22;39086;54.424;18.456;2023-07-20T08:23:53;16.90;99.90
53204;DHT22;39086;54.424;18.456;2023-07-20T08:24:55;16.90;99.90
53204;DHT22;39086;54.424;18.456;2023-07-20T08:25:58;16.90;99.90
53204;DHT22;39086;54.424;18.456;2023-07-20T08:27:00;17.00;99.90
53204;DHT22;39086;54.424;18.456;2023-07-20T08:28:03;17.00;99.90
53204;DHT22;39086;54.424;18.456;2023-07-20T08:29:05;17.00;99.90
53204;DHT22;39086;54.424;18.456;2023-07-20T08:30:08;17.00;99.90
53204;DHT22;39086;54.424;18.456;2023-07-20T08:31:12;17.00;99.90
53204;DHT22;39086;54.424;18.456;2023-07-20T08:32:14;17.10;99.90
53204;DHT22;39086;54.424;18.456;2023-07-20T08:33:18;17.10;99.90
53204;DHT22;39086;54.424;18.456;2023-07-20T08:34:22;17.20;99.90
53204;DHT22;39086;54.424;18.456;2023-07-20T08:35:34;17.20;99.90
53204;DHT22;39086;54.424;18.456;2023-07-20T08:36:39;17.30;99.90
53204;DHT22;39086;54.424;18.456;2023-07-20T08:37:41;17.30;99.90
53204;DHT22;39086;54.424;18.456;2023-07-20T08:38:44;17.40;99.90
53204;DHT22;39086;54.424;18.456;2023-07-20T08:39:46;17.40;99.90
53204;DHT22;39086;54.424;18.456;2023-07-20T08:40:49;17.50;99.90
53204;DHT22;39086;54.424;18.456;2023-07-20T08:41:54;17.50;99.90
53204;DHT22;39086;54.424;18.456;2023-07-20T08:42:58;17.60;99.90
53204;DHT22;39086;54.424;18.456;2023-07-20T08:44:01;17.60;99.90
53204;DHT22;39086;54.424;18.456;2023-07-20T08:45:06;17.70;99.90
53204;DHT22;39086;54.424;18.456;2023-07-20T08:46:11;17.70;99.90
53204;DHT22;39086;54.424;18.456;2023-07-20T08:47:16;17.80;99.90
53204;DHT22;39086;54.424;18.456;2023-07-20T08:48:20;17.80;99.90
53204;DHT22;39086;54.424;18.456;2023-07-20T08:49:22;17.90;99.90
53204;DHT22;39086;54.424;18.456;2023-07-20T08:50:26;18.00;99.90
53204;DHT22;39086;54.424;18.456;2023-07-20T08:51:32;17.90;99.90
53204;DHT22;39086;54.424;18.456;2023-07-20T08:52:36;17.90;99.90
53204;DHT22;39086;54.424;18.456;2023-07-20T08:53:38;17.80;99.90
53204;DHT22;39086;54.424;18.456;2023-07-20T08:54:41;17.80;99.90
53204;DHT22;39086;54.424;18.456;2023-07-20T08:55:45;17.80;99.90
53204;DHT22;39086;54.424;18.456;2023-07-20T08:56:49;17.80;99.90
53204;DHT22;39086;54.424;18.456;2023-07-20T08:57:53;17.80;99.90
53204;DHT22;39086;54.424;18.456;2023-07-20T08:58:57;17.80;99.90
53204;DHT22;39086;54.424;18.456;2023-07-20T09:00:03;17.70;99.90
53204;DHT22;39086;54.424;18.456;2023-07-20T09:01:10;17.70;99.90
53204;DHT22;39086;54.424;18.456;2023-07-20T09:02:16;17.60;99.90
53204;DHT22;39086;54.424;18.456;2023-07-20T09:03:21;17.60;99.90
53204;DHT22;39086;54.424;18.456;2023-07-20T09:04:23;17.70;99.90
53204;DHT22;39086;54.424;18.456;2023-07-20T09:05:27;17.70;99.90
53204;DHT22;39086;54.424;18.456;2023-07-20T09:06:29;17.80;99.90
53204;DHT22;39086;54.424;18.456;2023-07-20T09:07:35;17.90;99.90
53204;DHT22;39086;54.424;18.456;2023-07-20T09:08:38;17.90;99.90
53204;DHT22;39086;54.424;18.456;2023-07-20T09:09:41;18.00;99.90
53204;DHT22;39086;54.424;18.456;2023-07-20T09:10:44;18.10;99.90
53204;DHT22;39086;54.424;18.456;2023-07-20T09:11:48;18.10;99.90
53204;DHT22;39086;54.424;18.456;2023-07-20T09:12:50;18.10;99.90
53204;DHT22;39086;54.424;18.456;2023-07-20T09:14:03;18.10;99.90
53204;DHT22;39086;54.424;18.456;2023-07-20T09:15:06;18.20;99.90
53204;DHT22;39086;54.424;18.456;2023-07-20T09:16:13;18.20;99.90
53204;DHT22;39086;54.424;18.456;2023-07-20T09:17:15;18.30;99.90
53204;DHT22;39086;54.424;18.456;2023-07-20T09:18:25;18.20;99.90
53204;DHT22;39086;54.424;18.456;2023-07-20T09:19:27;18.30;99.90
53204;DHT22;39086;54.424;18.456;2023-07-20T09:20:32;18.30;99.90
53204;DHT22;39086;54.424;18.456;2023-07-20T09:21:35;18.30;99.90
53204;DHT22;39086;54.424;18.456;2023-07-20T09:22:40;18.50;99.90
53204;DHT22;39086;54.424;18.456;2023-07-20T09:23:42;18.50;99.90
53204;DHT22;39086;54.424;18.456;2023-07-20T09:24:45;18.60;99.90
53204;DHT22;39086;54.424;18.456;2023-07-20T09:25:48;18.70;99.90
53204;DHT22;39086;54.424;18.456;2023-07-20T09:26:52;18.70;99.90
53204;DHT22;39086;54.424;18.456;2023-07-20T09:27:56;18.90;99.90
53204;DHT22;39086;54.424;18.456;2023-07-20T09:29:00;18.90;99.90
53204;DHT22;39086;54.424;18.456;2023-07-20T09:30:04;18.90;99.90
53204;DHT22;39086;54.424;18.456;2023-07-20T09:31:16;18.90;99.90
53204;DHT22;39086;54.424;18.456;2023-07-20T09:32:19;19.00;99.90
53204;DHT22;39086;54.424;18.456;2023-07-20T09:33:26;19.00;99.90
53204;DHT22;39086;54.424;18.456;2023-07-20T09:34:29;18.90;99.90
53204;DHT22;39086;54.424;18.456;2023-07-20T09:35:36;18.90;99.90
53204;DHT22;39086;54.424;18.456;2023-07-20T09:36:44;18.90;99.90
53204;DHT22;39086;54.424;18.456;2023-07-20T09:37:55;18.80;99.90
53204;DHT22;39086;54.424;18.456;2023-07-20T09:39:03;18.90;99.90
53204;DHT22;39086;54.424;18.456;2023-07-20T09:40:07;18.90;99.90
53204;DHT22;39086;54.424;18.456;2023-07-20T09:41:14;18.90;99.90
53204;DHT22;39086;54.424;18.456;2023-07-20T09:42:21;18.90;99.90
53204;DHT22;39086;54.424;18.456;2023-07-20T09:43:28;19.00;99.90
53204;DHT22;39086;54.424;18.456;2023-07-20T09:44:32;19.00;99.90
53204;DHT22;39086;54.424;18.456;2023-07-20T09:45:40;19.00;99.90
53204;DHT22;39086;54.424;18.456;2023-07-20T09:46:47;19.00;99.90
53204;DHT22;39086;54.424;18.456;2023-07-20T09:47:52;18.90;99.90
53204;DHT22;39086;54.424;18.456;2023-07-20T09:49:09;19.00;99.90
53204;DHT22;39086;54.424;18.456;2023-07-20T09:50:13;19.00;99.90
53204;DHT22;39086;54.424;18.456;2023-07-20T09:51:21;19.10;99.90
53204;DHT22;39086;54.424;18.456;2023-07-20T09:52:24;19.10;99.90
53204;DHT22;39086;54.424;18.456;2023-07-20T09:53:33;19.10;99.90